createdAt,value
2018-06-24T00:01:02.683Z,12.80
2018-06-24T00:03:31.853Z,12.70
2018-06-24T00:06:01.017Z,12.50
2018-06-24T00:08:31.240Z,12.50
2018-06-24T00:11:00.502Z,12.40
2018-06-24T00:13:29.670Z,12.40
2018-06-24T00:15:58.795Z,12.30
2018-06-24T00:18:27.962Z,12.20
2018-06-24T00:20:57.340Z,12.10
2018-06-24T00:23:26.626Z,12.00
2018-06-24T00:25:55.989Z,12.00
2018-06-24T00:28:25.231Z,12.00
2018-06-24T00:30:54.909Z,11.90
2018-06-24T00:35:52.796Z,11.70
2018-06-24T00:38:22.002Z,11.70
2018-06-24T00:40:51.145Z,11.70
2018-06-24T00:43:20.344Z,11.70
2018-06-24T00:46:01.965Z,11.70
2018-06-24T00:48:31.139Z,11.70
2018-06-24T00:51:01.030Z,11.80
2018-06-24T00:53:30.169Z,12.00
2018-06-24T00:55:59.494Z,12.10
2018-06-24T00:58:29.423Z,12.20
2018-06-24T01:00:58.600Z,12.30
2018-06-24T01:03:27.814Z,12.40
2018-06-24T01:05:57.063Z,12.30
2018-06-24T01:08:26.411Z,12.30
2018-06-24T01:10:55.531Z,12.30
2018-06-24T01:13:24.792Z,12.30
2018-06-24T01:15:54.193Z,12.30
2018-06-24T01:18:23.439Z,12.30
2018-06-24T01:20:52.664Z,12.30
2018-06-24T01:23:21.772Z,12.30
2018-06-24T01:25:51.010Z,12.30
2018-06-24T01:28:20.153Z,12.30
2018-06-24T01:30:50.174Z,12.40
2018-06-24T01:33:19.376Z,12.40
2018-06-24T01:35:48.774Z,12.40
2018-06-24T01:38:17.902Z,12.50
2018-06-24T01:40:47.053Z,12.50
2018-06-24T01:43:16.889Z,12.50
2018-06-24T01:45:46.326Z,12.50
2018-06-24T01:48:15.458Z,12.60
2018-06-24T01:50:44.688Z,12.60
2018-06-24T01:53:13.897Z,12.60
2018-06-24T01:55:43.116Z,12.70
2018-06-24T01:58:12.273Z,12.60
2018-06-24T02:00:41.473Z,12.60
2018-06-24T02:03:10.707Z,12.50
2018-06-24T02:05:39.957Z,12.60
2018-06-24T02:08:09.156Z,12.70
2018-06-24T02:10:38.298Z,12.80
2018-06-24T02:13:07.411Z,12.90
2018-06-24T02:15:36.625Z,12.90
2018-06-24T02:18:05.805Z,12.80
2018-06-24T02:20:35.004Z,12.80
2018-06-24T02:23:04.893Z,12.80
2018-06-24T02:25:34.092Z,12.80
2018-06-24T02:28:03.415Z,13.00
2018-06-24T02:30:32.618Z,12.80
2018-06-24T02:33:01.803Z,12.80
2018-06-24T02:35:30.954Z,12.80
2018-06-24T02:38:00.200Z,12.90
2018-06-24T02:40:29.730Z,12.90
2018-06-24T02:42:58.852Z,12.80
2018-06-24T02:45:28.092Z,12.80
2018-06-24T02:47:57.405Z,12.80
2018-06-24T02:50:27.245Z,12.80
2018-06-24T02:52:56.530Z,12.80
2018-06-24T02:55:25.741Z,12.70
2018-06-24T02:58:04.746Z,12.70
2018-06-24T03:00:33.865Z,12.70
2018-06-24T03:03:03.096Z,12.80
2018-06-24T03:05:32.423Z,12.70
2018-06-24T03:08:01.525Z,12.70
2018-06-24T03:10:30.828Z,12.60
2018-06-24T03:12:59.919Z,12.60
2018-06-24T03:15:29.167Z,12.60
2018-06-24T03:17:58.510Z,12.60
2018-06-24T03:20:27.930Z,12.50
2018-06-24T03:22:57.196Z,12.50
2018-06-24T03:25:26.572Z,12.40
2018-06-24T03:27:55.773Z,12.40
2018-06-24T03:30:25.176Z,12.30
2018-06-24T03:32:54.548Z,12.30
2018-06-24T03:35:23.700Z,12.20
2018-06-24T03:37:52.908Z,12.30
2018-06-24T03:40:22.851Z,12.30
2018-06-24T03:45:21.229Z,12.50
2018-06-24T03:47:50.466Z,12.60
2018-06-24T03:50:19.755Z,12.70
2018-06-24T03:52:48.959Z,12.80
2018-06-24T03:55:18.133Z,12.80
2018-06-24T03:57:47.327Z,13.00
2018-06-24T04:00:16.490Z,13.00
2018-06-24T04:02:46.153Z,13.00
2018-06-24T04:05:15.242Z,13.10
2018-06-24T04:07:44.554Z,13.10
2018-06-24T04:12:42.636Z,13.20
2018-06-24T04:15:11.889Z,13.30
2018-06-24T04:17:41.257Z,13.30
2018-06-24T04:20:11.249Z,13.40
2018-06-24T04:22:40.447Z,13.50
2018-06-24T04:25:10.351Z,13.50
2018-06-24T04:27:39.893Z,13.50
2018-06-24T04:30:10.123Z,13.50
2018-06-24T04:32:39.835Z,13.50
2018-06-24T04:35:09.191Z,13.60
2018-06-24T04:37:38.539Z,13.60
2018-06-24T04:40:07.857Z,13.50
2018-06-24T04:42:37.058Z,13.50
2018-06-24T04:45:06.338Z,13.50
2018-06-24T04:47:35.549Z,13.50
2018-06-24T04:50:05.204Z,13.50
2018-06-24T04:52:35.352Z,13.50
2018-06-24T04:55:04.579Z,13.50
2018-06-24T04:57:34.438Z,13.50
2018-06-24T05:00:03.828Z,13.50
2018-06-24T05:02:33.066Z,13.60
2018-06-24T05:05:02.272Z,13.50
2018-06-24T05:07:31.490Z,13.50
2018-06-24T05:10:00.749Z,13.50
2018-06-24T05:12:29.832Z,13.60
2018-06-24T05:14:59.085Z,13.50
2018-06-24T05:17:28.285Z,13.50
2018-06-24T05:19:57.464Z,13.50
2018-06-24T05:22:26.681Z,13.40
2018-06-24T05:24:55.833Z,13.40
2018-06-24T05:27:25.146Z,13.40
2018-06-24T05:29:54.458Z,13.40
2018-06-24T05:32:23.571Z,13.50
2018-06-24T05:34:52.828Z,13.40
2018-06-24T05:37:22.801Z,13.40
2018-06-24T05:39:52.047Z,13.30
2018-06-24T05:42:21.293Z,13.30
2018-06-24T05:44:50.770Z,13.20
2018-06-24T05:47:20.076Z,13.20
2018-06-24T05:49:49.261Z,13.10
2018-06-24T05:52:18.490Z,13.10
2018-06-24T05:54:47.620Z,13.10
2018-06-24T05:57:17.655Z,13.10
2018-06-24T05:59:46.929Z,13.10
2018-06-24T06:02:16.080Z,13.10
2018-06-24T06:04:45.293Z,13.10
2018-06-24T06:07:14.444Z,13.00
2018-06-24T06:09:43.680Z,12.90
2018-06-24T06:12:12.881Z,12.90
2018-06-24T06:14:42.170Z,12.90
2018-06-24T06:17:11.374Z,12.80
2018-06-24T06:19:40.576Z,12.90
2018-06-24T06:22:09.724Z,12.90
2018-06-24T06:24:38.990Z,12.80
2018-06-24T06:27:08.232Z,12.90
2018-06-24T06:29:37.450Z,12.90
2018-06-24T06:32:06.705Z,12.70
2018-06-24T06:34:36.097Z,12.80
2018-06-24T06:37:05.485Z,12.90
2018-06-24T06:39:35.770Z,12.90
2018-06-24T06:42:05.165Z,12.90
2018-06-24T06:44:34.362Z,12.80
2018-06-24T06:47:03.599Z,12.80
2018-06-24T06:49:33.125Z,12.80
2018-06-24T06:52:02.424Z,12.90
2018-06-24T06:54:31.572Z,13.00
2018-06-24T06:57:00.829Z,13.20
2018-06-24T06:59:30.232Z,13.30
2018-06-24T07:01:59.483Z,13.30
2018-06-24T07:04:28.809Z,13.30
2018-06-24T07:06:57.970Z,13.50
2018-06-24T07:09:27.846Z,13.70
2018-06-24T07:11:57.032Z,13.80
2018-06-24T07:14:26.256Z,13.70
2018-06-24T07:16:55.492Z,13.80
2018-06-24T07:19:25.150Z,13.90
2018-06-24T07:21:54.367Z,14.00
2018-06-24T07:24:23.592Z,14.30
2018-06-24T07:26:52.807Z,14.30
2018-06-24T07:29:21.907Z,14.40
2018-06-24T07:31:51.173Z,14.30
2018-06-24T07:34:20.497Z,14.30
2018-06-24T07:36:49.716Z,14.20
2018-06-24T07:39:18.945Z,14.30
2018-06-24T07:41:48.109Z,14.30
2018-06-24T07:44:17.356Z,14.10
2018-06-24T07:46:46.671Z,14.10
2018-06-24T07:49:15.920Z,14.20
2018-06-24T07:51:45.117Z,14.20
2018-06-24T07:56:43.185Z,14.30
2018-06-24T07:59:12.524Z,14.30
2018-06-24T08:01:41.651Z,14.50
2018-06-24T08:04:10.821Z,14.60
2018-06-24T08:06:40.021Z,14.70
2018-06-24T08:09:11.282Z,14.60
2018-06-24T08:11:41.483Z,14.70
2018-06-24T08:14:10.657Z,14.60
2018-06-24T08:16:39.881Z,14.60
2018-06-24T08:19:09.111Z,14.50
2018-06-24T08:21:38.400Z,14.60
2018-06-24T08:24:07.717Z,14.60
2018-06-24T08:26:37.084Z,14.60
2018-06-24T08:29:06.235Z,14.50
2018-06-24T08:31:36.050Z,14.70
2018-06-24T08:34:05.636Z,14.60
2018-06-24T08:36:35.092Z,14.60
2018-06-24T08:39:06.485Z,14.50
2018-06-24T08:41:35.872Z,14.40
2018-06-24T08:44:05.148Z,14.30
2018-06-24T08:46:34.539Z,14.30
2018-06-24T08:49:03.736Z,14.40
2018-06-24T08:51:33.062Z,14.50
2018-06-24T08:54:02.277Z,14.50
2018-06-24T08:56:31.474Z,14.60
2018-06-24T08:59:00.602Z,14.60
2018-06-24T09:01:29.753Z,14.40
2018-06-24T09:03:58.920Z,14.40
2018-06-24T09:06:28.311Z,14.40
2018-06-24T09:08:57.542Z,14.20
2018-06-24T09:11:26.858Z,14.10
2018-06-24T09:13:56.045Z,14.10
2018-06-24T09:16:25.169Z,14.10
2018-06-24T09:18:54.445Z,14.10
2018-06-24T09:23:52.427Z,14.30
2018-06-24T09:26:21.846Z,14.40
2018-06-24T09:28:51.069Z,14.40
2018-06-24T09:31:20.429Z,14.60
2018-06-24T09:33:49.597Z,14.60
2018-06-24T09:36:18.849Z,14.60
2018-06-24T09:38:48.128Z,14.50
2018-06-24T09:41:17.545Z,14.40
2018-06-24T09:43:46.796Z,14.30
2018-06-24T09:46:16.042Z,14.30
2018-06-24T09:48:45.329Z,14.50
2018-06-24T09:51:14.554Z,14.60
2018-06-24T09:53:43.695Z,14.60
2018-06-24T09:56:13.013Z,14.70
2018-06-24T09:58:42.181Z,14.60
2018-06-24T10:01:11.434Z,14.70
2018-06-24T10:03:40.946Z,14.70
2018-06-24T10:06:10.249Z,14.60
2018-06-24T10:08:39.456Z,14.50
2018-06-24T10:11:08.706Z,14.50
2018-06-24T10:13:37.830Z,14.60
2018-06-24T10:16:07.875Z,14.70
2018-06-24T10:18:37.147Z,14.60
2018-06-24T10:21:06.457Z,14.70
2018-06-24T10:23:35.653Z,14.70
2018-06-24T10:26:04.862Z,14.80
2018-06-24T10:28:34.125Z,14.80
2018-06-24T10:31:03.345Z,14.80
2018-06-24T10:33:32.636Z,14.70
2018-06-24T10:36:01.784Z,14.70
2018-06-24T10:38:31.019Z,14.80
2018-06-24T10:41:01.134Z,14.80
2018-06-24T10:43:30.283Z,14.70
2018-06-24T10:46:00.037Z,14.80
2018-06-24T10:48:29.172Z,15.00
2018-06-24T10:50:58.388Z,15.00
2018-06-24T10:53:27.642Z,14.80
2018-06-24T10:55:57.054Z,14.70
2018-06-24T11:00:55.027Z,14.70
2018-06-24T11:03:24.215Z,14.70
2018-06-24T11:05:53.481Z,14.70
2018-06-24T11:08:22.828Z,14.80
2018-06-24T11:10:52.090Z,14.90
2018-06-24T11:13:21.432Z,14.90
2018-06-24T11:15:50.781Z,14.80
2018-06-24T11:18:19.975Z,14.90
2018-06-24T11:20:49.157Z,14.90
2018-06-24T11:23:18.341Z,14.90
2018-06-24T11:25:47.529Z,14.90
2018-06-24T11:28:16.875Z,15.10
2018-06-24T11:30:46.063Z,15.30
2018-06-24T11:33:15.230Z,15.40
2018-06-24T11:35:44.432Z,15.50
2018-06-24T11:38:13.569Z,15.80
2018-06-24T11:40:42.801Z,15.50
2018-06-24T11:43:12.002Z,15.50
2018-06-24T11:45:41.253Z,15.60
2018-06-24T11:50:39.131Z,15.90
2018-06-24T11:53:08.241Z,16.20
2018-06-24T11:55:37.749Z,16.40
2018-06-24T11:58:07.058Z,16.30
2018-06-24T12:00:36.283Z,16.10
2018-06-24T12:03:05.645Z,16.00
2018-06-24T12:08:03.599Z,15.80
2018-06-24T12:10:32.974Z,15.90
2018-06-24T12:13:02.541Z,15.90
2018-06-24T12:15:31.655Z,16.00
2018-06-24T12:18:00.828Z,16.00
2018-06-24T12:20:30.412Z,15.80
2018-06-24T12:22:59.562Z,15.70
2018-06-24T12:25:28.983Z,15.70
2018-06-24T12:27:58.213Z,15.90
2018-06-24T12:30:27.636Z,16.00
2018-06-24T12:32:57.044Z,15.90
2018-06-24T12:35:26.932Z,15.70
2018-06-24T12:37:56.077Z,15.70
2018-06-24T12:40:31.283Z,15.80
2018-06-24T12:45:30.619Z,15.80
2018-06-24T12:50:29.108Z,15.70
2018-06-24T12:52:58.617Z,15.90
2018-06-24T12:57:56.688Z,16.40
2018-06-24T13:00:26.711Z,16.90
2018-06-24T13:02:56.353Z,17.30
2018-06-24T13:05:25.664Z,17.40
2018-06-24T13:07:55.007Z,16.90
2018-06-24T13:10:24.381Z,16.60
2018-06-24T13:12:53.616Z,16.30
2018-06-24T13:15:22.878Z,16.10
2018-06-24T13:17:52.087Z,15.90
2018-06-24T13:20:21.449Z,15.90
2018-06-24T13:25:19.455Z,16.10
2018-06-24T13:27:49.413Z,16.10
2018-06-24T13:30:18.644Z,16.20
2018-06-24T13:32:47.975Z,16.20
2018-06-24T13:35:17.474Z,16.30
2018-06-24T13:37:46.751Z,16.30
2018-06-24T13:40:15.979Z,16.10
2018-06-24T13:42:45.120Z,16.10
2018-06-24T13:45:14.394Z,16.20
2018-06-24T13:47:43.696Z,16.20
2018-06-24T13:50:12.975Z,16.50
2018-06-24T13:52:42.167Z,17.00
2018-06-24T13:55:11.328Z,16.90
2018-06-24T13:57:40.523Z,16.70
2018-06-24T14:00:09.795Z,16.30
2018-06-24T14:02:39.413Z,16.30
2018-06-24T14:05:08.677Z,16.60
2018-06-24T14:07:37.971Z,16.90
2018-06-24T14:10:07.315Z,17.10
2018-06-24T14:12:36.523Z,17.40
2018-06-24T14:15:06.423Z,17.30
2018-06-24T14:17:35.691Z,17.00
2018-06-24T14:20:05.153Z,17.00
2018-06-24T14:22:34.284Z,17.00
2018-06-24T14:25:03.495Z,17.40
2018-06-24T14:27:32.727Z,17.20
2018-06-24T14:30:01.947Z,16.90
2018-06-24T14:32:31.170Z,16.70
2018-06-24T14:35:00.301Z,16.70
2018-06-24T14:37:29.548Z,16.60
2018-06-24T14:39:58.717Z,16.60
2018-06-24T14:42:27.884Z,17.10
2018-06-24T14:44:57.184Z,17.10
2018-06-24T14:47:26.344Z,16.90
2018-06-24T14:49:55.493Z,16.90
2018-06-24T14:52:24.753Z,17.20
2018-06-24T14:54:53.960Z,17.60
2018-06-24T14:57:23.390Z,17.80
2018-06-24T14:59:52.591Z,18.20
2018-06-24T15:02:21.864Z,18.00
2018-06-24T15:07:19.775Z,18.70
2018-06-24T15:09:48.960Z,19.00
2018-06-24T15:12:18.174Z,19.40
2018-06-24T15:14:47.364Z,19.30
2018-06-24T15:17:16.644Z,19.20
2018-06-24T15:19:46.547Z,19.00
2018-06-24T15:22:15.968Z,18.90
2018-06-24T15:24:45.164Z,19.00
2018-06-24T15:27:14.326Z,19.10
2018-06-24T15:29:43.589Z,19.10
2018-06-24T15:32:12.739Z,19.10
2018-06-24T15:34:41.860Z,19.00
2018-06-24T15:39:39.953Z,18.40
2018-06-24T15:42:09.821Z,18.50
2018-06-24T15:44:39.079Z,18.70
2018-06-24T15:47:08.636Z,18.80
2018-06-24T15:49:37.849Z,18.60
2018-06-24T15:54:35.845Z,18.30
2018-06-24T15:59:34.012Z,18.00
2018-06-24T16:02:03.389Z,18.00
2018-06-24T16:04:32.543Z,18.00
2018-06-24T16:09:30.683Z,17.50
2018-06-24T16:12:00.002Z,17.30
2018-06-24T16:14:29.277Z,17.10
2018-06-24T16:16:58.598Z,16.80
2018-06-24T16:19:27.721Z,16.60
2018-06-24T16:21:57.115Z,16.50
2018-06-24T16:24:26.365Z,16.40
2018-06-24T16:26:55.450Z,16.30
2018-06-24T16:29:25.653Z,16.10
2018-06-24T16:31:54.858Z,16.00
2018-06-24T16:34:23.967Z,16.00
2018-06-24T16:36:53.112Z,16.00
2018-06-24T16:39:22.321Z,15.80
2018-06-24T16:41:51.572Z,15.60
2018-06-24T16:44:20.845Z,15.50
2018-06-24T16:49:19.160Z,15.20
2018-06-24T16:51:48.308Z,15.20
2018-06-24T16:54:17.497Z,15.20
2018-06-24T16:56:46.859Z,15.20
2018-06-24T16:59:16.038Z,15.20
2018-06-24T17:01:45.338Z,15.20
2018-06-24T17:04:14.585Z,15.10
2018-06-24T17:06:43.804Z,15.10
2018-06-24T17:09:12.909Z,14.90
2018-06-24T17:11:42.175Z,14.90
2018-06-24T17:16:40.293Z,14.90
2018-06-24T17:19:09.455Z,14.90
2018-06-24T17:21:38.672Z,15.00
2018-06-24T17:24:07.821Z,14.90
2018-06-24T17:26:36.968Z,15.00
2018-06-24T17:29:06.109Z,15.00
2018-06-24T17:31:35.361Z,15.10
2018-06-24T17:34:04.515Z,15.30
2018-06-24T17:36:33.632Z,15.20
2018-06-24T17:39:02.790Z,15.10
2018-06-24T17:41:31.880Z,15.00
2018-06-24T17:44:01.105Z,15.00
2018-06-24T17:46:30.232Z,15.00
2018-06-24T17:48:59.417Z,15.00
2018-06-24T17:51:28.533Z,14.90
2018-06-24T17:53:57.701Z,14.80
2018-06-24T17:56:26.831Z,14.80
2018-06-24T17:58:56.870Z,14.80
2018-06-24T18:01:25.986Z,14.80
2018-06-24T18:03:58.125Z,14.80
2018-06-24T18:06:27.308Z,14.90
2018-06-24T18:08:56.498Z,14.80
2018-06-24T18:11:25.630Z,14.80
2018-06-24T18:13:54.761Z,14.80
2018-06-24T18:16:23.878Z,14.70
2018-06-24T18:18:53.157Z,14.70
2018-06-24T18:23:51.115Z,14.60
2018-06-24T18:26:20.622Z,14.50
2018-06-24T18:28:49.737Z,14.50
2018-06-24T18:33:47.920Z,14.20
2018-06-24T18:36:17.991Z,14.20
2018-06-24T18:38:47.261Z,14.20
2018-06-24T18:41:16.568Z,14.20
2018-06-24T18:43:45.689Z,14.10
2018-06-24T18:46:15.029Z,14.10
2018-06-24T18:48:44.156Z,14.10
2018-06-24T18:51:13.395Z,14.00
2018-06-24T18:53:43.236Z,13.90
2018-06-24T18:56:12.509Z,14.00
2018-06-24T18:58:41.632Z,14.10
2018-06-24T19:01:10.990Z,14.00
2018-06-24T19:03:40.533Z,14.10
2018-06-24T19:06:09.918Z,14.20
2018-06-24T19:08:39.449Z,14.20
2018-06-24T19:11:08.747Z,14.10
2018-06-24T19:13:38.093Z,14.10
2018-06-24T19:16:07.322Z,14.10
2018-06-24T19:18:36.500Z,14.10
2018-06-24T19:21:06.577Z,14.00
2018-06-24T19:23:35.820Z,14.00
2018-06-24T19:26:05.000Z,14.10
2018-06-24T19:28:34.507Z,14.00
2018-06-24T19:31:03.913Z,14.00
2018-06-24T19:33:33.072Z,14.10
2018-06-24T19:36:02.407Z,14.00
2018-06-24T19:38:31.736Z,14.10
2018-06-24T19:41:01.568Z,14.10
2018-06-24T19:43:30.848Z,14.10
2018-06-24T19:46:00.049Z,14.10
2018-06-24T19:48:29.332Z,14.10
2018-06-24T19:50:58.655Z,14.10
2018-06-24T19:53:28.880Z,14.00
2018-06-24T19:55:58.172Z,14.10
2018-06-24T19:58:27.304Z,14.10
2018-06-24T20:00:56.415Z,14.00
2018-06-24T20:03:25.654Z,14.00
2018-06-24T20:05:55.584Z,14.00
2018-06-24T20:08:24.804Z,14.00
2018-06-24T20:10:53.975Z,14.00
2018-06-24T20:13:23.148Z,14.00
2018-06-24T20:15:52.359Z,14.10
2018-06-24T20:18:21.668Z,14.10
2018-06-24T20:20:51.031Z,14.10
2018-06-24T20:23:20.245Z,14.10
2018-06-24T20:25:49.740Z,14.00
2018-06-24T20:28:19.645Z,14.10
2018-06-24T20:30:48.850Z,14.20
2018-06-24T20:33:18.179Z,14.20
2018-06-24T20:35:47.381Z,14.20
2018-06-24T20:38:16.509Z,14.30
2018-06-24T20:40:45.652Z,14.20
2018-06-24T20:43:14.902Z,14.20
2018-06-24T20:45:44.059Z,14.30
2018-06-24T20:48:13.272Z,14.30
2018-06-24T20:50:42.598Z,14.30
2018-06-24T20:53:11.879Z,14.30
2018-06-24T20:55:41.071Z,14.30
2018-06-24T20:58:10.250Z,14.30
2018-06-24T21:03:08.347Z,14.30
2018-06-24T21:05:37.668Z,14.30
2018-06-24T21:08:06.787Z,14.30
2018-06-24T21:10:36.278Z,14.40
2018-06-24T21:13:05.969Z,14.40
2018-06-24T21:15:35.298Z,14.40
2018-06-24T21:18:04.822Z,14.40
2018-06-24T21:20:34.052Z,14.40
2018-06-24T21:23:03.278Z,14.30
2018-06-24T21:25:32.525Z,14.40
2018-06-24T21:28:01.765Z,14.30
2018-06-24T21:30:31.015Z,14.30
2018-06-24T21:33:00.192Z,14.40
2018-06-24T21:35:29.446Z,14.30
2018-06-24T21:37:59.264Z,14.30
2018-06-24T21:40:28.707Z,14.30
2018-06-24T21:42:57.895Z,14.30
2018-06-24T21:45:27.057Z,14.30
2018-06-24T21:47:57.792Z,14.30
2018-06-24T21:50:26.986Z,14.30
2018-06-24T21:52:56.193Z,14.30
2018-06-24T21:55:25.357Z,14.40
2018-06-24T21:57:54.602Z,14.40
2018-06-24T22:00:25.001Z,14.40
2018-06-24T22:02:54.216Z,14.30
2018-06-24T22:05:23.517Z,14.30
2018-06-24T22:07:52.632Z,14.30
2018-06-24T22:10:21.762Z,14.30
2018-06-24T22:12:51.059Z,14.40
2018-06-24T22:15:21.567Z,14.40
2018-06-24T22:17:50.785Z,14.30
2018-06-24T22:20:19.980Z,14.30
2018-06-24T22:22:49.122Z,14.30
2018-06-24T22:25:18.567Z,14.30
2018-06-24T22:27:48.064Z,14.20
2018-06-24T22:30:17.291Z,14.20
2018-06-24T22:32:46.534Z,14.30
2018-06-24T22:35:15.761Z,14.30
2018-06-24T22:40:13.750Z,14.30
2018-06-24T22:42:42.929Z,14.30
2018-06-24T22:45:12.120Z,14.30
2018-06-24T22:47:41.395Z,14.40
2018-06-24T22:50:10.658Z,14.40
2018-06-24T22:52:40.776Z,14.40
2018-06-24T22:55:10.068Z,14.30
2018-06-24T22:57:39.259Z,14.30
2018-06-24T23:02:47.507Z,14.30
2018-06-24T23:05:17.010Z,14.30
2018-06-24T23:07:46.267Z,14.40
2018-06-24T23:10:15.524Z,14.30
2018-06-24T23:12:45.267Z,14.30
2018-06-24T23:15:14.593Z,14.40
2018-06-24T23:17:43.893Z,14.30
2018-06-24T23:20:13.212Z,14.30
2018-06-24T23:22:42.318Z,14.30
2018-06-24T23:25:11.736Z,14.30
2018-06-24T23:27:41.122Z,14.30
2018-06-24T23:30:10.320Z,14.30
2018-06-24T23:32:39.494Z,14.30
2018-06-24T23:35:08.783Z,14.30
2018-06-24T23:37:37.997Z,14.40
2018-06-24T23:40:07.446Z,14.40
2018-06-24T23:42:36.589Z,14.40
2018-06-24T23:45:05.806Z,14.40
2018-06-24T23:47:35.012Z,14.40
2018-06-24T23:50:04.414Z,14.30
2018-06-24T23:52:33.619Z,14.30
2018-06-24T23:55:02.895Z,14.30
2018-06-24T23:57:32.203Z,14.40
